Weather at Castriz/Cambe Airfield

Public forecast

Using degrees Celsius for public forecast. Weather courtesy of forecast.io.

Closest aviation weather report (METAR) to Castriz/Cambe Airfield

Closest report is Santiago-Rosalía de Castro Airport, 19.6 nm (36.3 km) SE.

2022/11/29 11:30 (retrieved 25 minutes ago)

LEST 291130Z 16003KT 110V200 9999 SCT032 10/08 Q1024 NOSIG

Closest aviation forecast (TAF) to Castriz/Cambe Airfield

Closest forecast is Santiago-Rosalía de Castro Airport, 19.6 nm (36.3 km) SE.

2022/11/29 06:27 (retrieved 5 hours ago)

TAF LEST 290500Z 2906/3006 18006KT 9999 FEW020 BKN040 TX11/2914Z TN06/2907Z PROB40 TEMPO 2906/2910 1500 BCFG BKN005 PROB40 TEMPO 2906/2909 0350 FG VV001 TEMPO 3001/3006 3000 RA BKN010